Nearby METAR Reports

 

KSEE - San Diego/Santee, California, USA
Distance from station: E 4mi, 6km
Updated: 09/20/2019 6:47am
Partly cloudy
Partly cloudy
 Wind from W
Wind: W 3 mph , 6 km/h
Temperature: 57°F , 14°C
Dew Point: 54°F , 12°C
Humidity: 88%
Barometer: 29.90 inHg , 1012.5 hPa
Clouds: Partly cloudy
Visibility: 10 miles , 16 km
Cloud details: Partly cloudy 1300 ft
2019/09/20 13:47 KSEE 201347Z 26003KT 10SM SCT013 14/12 A2990
KMYF - San Diego/Mntgmy, California, USA
Distance from station: W 6mi, 10km
Updated: 09/20/2019 5:53am
Clear
Clear
 Wind from calm
Wind: Calm
Temperature: 57°F , 14°C
Dew Point: 52°F , 11°C
Humidity: 82%
Barometer: 29.89 inHg , 1012.2 hPa
Clouds: Clear
Visibility: 10 miles , 16 km
2019/09/20 12:53 KMYF 201253Z AUTO 00000KT 10SM CLR 14/11 A2989 RMK AO2 SLP116 T01440111
 
KNKX - Miramar Nas/San, California, USA
Distance from station: WNW 7mi, 11km
Updated: 09/20/2019 5:55am
Clear
Clear
 Wind from ENE
Wind: ENE 6 mph , 9 km/h
Temperature: 55°F , 13°C
Dew Point: 50°F , 10°C
Humidity: 82%
Barometer: 29.88 inHg , 1011.9 hPa
Clouds: Clear
Visibility: 10 miles , 16 km
2019/09/20 12:55 KNKX 201255Z 07005KT 10SM CLR 13/10 A2988 RMK AO2 SLP114 T01330100
KSAN - San Diego, California, USA
Distance from station: WSW 11mi, 17km
Updated: 09/20/2019 6:51am
Few Clouds
Few Clouds
 Wind from calm
Wind: Calm
Temperature: 61°F , 16°C
Dew Point: 55°F , 13°C
Humidity: 83%
Barometer: 29.90 inHg , 1012.5 hPa
Clouds: Few Clouds
Visibility: 10 miles , 16 km
Cloud details: Few Clouds 2500 ft
2019/09/20 13:51 KSAN 201351Z 00000KT 10SM FEW025 16/13 A2990 RMK AO2 SLP124 T01610128
 
KNZY - North Island Nas, California, USA
Distance from station: SW 13mi, 22km
Updated: 09/20/2019 6:52am
Few Clouds
Few Clouds
 Wind from E
Wind: E 5 mph , 7 km/h
Temperature: 61°F , 16°C
Dew Point: 54°F , 12°C
Humidity: 77%
Barometer: 29.88 inHg , 1011.9 hPa
Clouds: Few Clouds
Visibility: 10 miles , 16 km
Cloud details: Few Clouds 2500 ft
2019/09/20 13:52 KNZY 201352Z 09004KT 10SM FEW025 16/12 A2988 RMK AO2 SLP117 T01560117
KRNM - Ramona, California, USA
Distance from station: NNE 16mi, 26km
Updated: 09/20/2019 5:53am
Clear
Clear
 Wind from calm
Wind: Calm
Temperature: 48°F , 9°C
Dew Point: 46°F , 8°C
Humidity: 94%
Barometer: 29.89 inHg , 1012.2 hPa
Clouds: Clear
Visibility: 10 miles , 16 km
2019/09/20 12:53 KRNM 201253Z AUTO 00000KT 10SM CLR 09/08 A2989 RMK AO2 SLP114 T00940078
 
KSDM - San Diego/Brown, California, USA
Distance from station: S 16mi, 26km
Updated: 09/20/2019 5:53am
Clear
Clear
 Wind from ENE
Wind: ENE 3 mph , 6 km/h
Temperature: 57°F , 14°C
Dew Point: 54°F , 12°C
Humidity: 88%
Barometer: 29.88 inHg , 1011.9 hPa
Clouds: Clear
Visibility: 10 miles , 16 km
2019/09/20 12:53 KSDM 201253Z AUTO 06003KT 10SM CLR 14/12 A2988 RMK AO2 SLP115 T01390117
KNRS - Imperial Beach, California, USA
Distance from station: SSW 18mi, 29km
Updated: 09/20/2019 5:56am
Clear
Clear
 
Barometer: 29.88 inHg , 1011.9 hPa
Clouds: Clear
Visibility: 10 miles , 16 km
2019/09/20 12:56 KNRS 201256Z AUTO 10SM CLR A2988 RMK AO2 SLP119 $
 
MMTJ - Tijuana Intl Arp, Mexico
Distance from station: S 20mi, 32km
Updated: 09/20/2019 5:41am
Clear
Clear
 Wind from calm
Wind: Calm
Temperature: 57°F , 14°C
Dew Point: 54°F , 12°C
Humidity: 88%
Barometer: 29.90 inHg , 1012.5 hPa
Clouds: Clear
Visibility: 7 miles , 11 km
2019/09/20 12:41 MMTJ 201241Z 00000KT 7SM SKC 14/12 A2990 RMK HZY ST W
KCRQ - Carlsbad, California, USA
Distance from station: NW 26mi, 43km
Updated: 09/20/2019 5:53am
Clear
Clear
 Wind from calm
Wind: Calm
Temperature: 63°F , 17°C
Dew Point: 54°F , 12°C
Humidity: 73%
Barometer: 29.87 inHg , 1011.5 hPa
Clouds: Clear
Visibility: 10 miles , 16 km
2019/09/20 12:53 KCRQ 201253Z AUTO 00000KT 10SM CLR 17/12 A2987 RMK AO2 SLP113 T01670122
 
KOKB - Oceanside, California, USA
Distance from station: NW 33mi, 54km
Updated: 09/20/2019 6:52am
Clear
Clear
 Wind from calm
Wind: Calm
Temperature: 54°F , 12°C
Dew Point: 50°F , 10°C
Humidity: 88%
Barometer: 29.88 inHg , 1011.9 hPa
Clouds: Clear
Visibility: 8 miles , 13 km
2019/09/20 13:52 KOKB 201352Z AUTO 00000KT 8SM CLR 12/10 A2988 RMK AO2 SLP119 T01170100 $
KCZZ - Campo, California, USA
Distance from station: ESE 35mi, 56km
Updated: 09/20/2019 6:52am

 Wind from ENE
Wind: ENE 3 mph , 6 km/h
Temperature: 36°F , 2°C
Dew Point: 28°F , -2°C
Humidity: 75%
Barometer: 29.89 inHg , 1012.2 hPa
2019/09/20 13:52 KCZZ 201352Z AUTO 06003KT 02/M02 A2989 RMK AO1 SLP106 T00221017
 
KNFG - Camp Pendleton, California, USA
Distance from station: NNW 37mi, 59km
Updated: 09/20/2019 5:55am
Clear
Clear
 Wind from calm
Wind: Calm
Temperature: 54°F , 12°C
Dew Point: 48°F , 9°C
Humidity: 82%
Barometer: 29.89 inHg , 1012.2 hPa
Clouds: Clear
Visibility: 10 miles , 16 km
2019/09/20 12:55 KNFG 201255Z AUTO 00000KT 10SM CLR 12/09 A2989 RMK AO2 SLP119 T01170094
KRIV - Riverside/March, California, USA
Distance from station: N 74mi, 119km
Updated: 09/20/2019 6:23am
Partly cloudy
Partly cloudy
 Wind from ESE
Wind: ESE 5 mph , 7 km/h
Temperature: 59°F , 15°C
Dew Point: 59°F , 15°C
Humidity: 100%
Barometer: 29.90 inHg , 1012.5 hPa
Clouds: Partly cloudy
Visibility: 10 miles , 16 km
Cloud details: Few Clouds 1200 ft
Few Clouds 1800 ft
Partly cloudy 2500 ft
2019/09/20 13:23 KRIV 201323Z AUTO 12004KT 10SM FEW012 FEW018 SCT025 15/15 A2990 RMK AO2 SLP116
 
KTRM - Thermal/Palm Spg, California, USA
Distance from station: NE 75mi, 121km
Updated: 09/20/2019 6:52am
Clear
Clear
 Wind from NNW
Wind: NNW 13 mph , 20 km/h
Temperature: 72°F , 22°C
Dew Point: 52°F , 11°C
Humidity: 50%
Barometer: 29.76 inHg , 1007.8 hPa
Clouds: Clear
Visibility: 10 miles , 16 km
2019/09/20 13:52 KTRM 201352Z AUTO 33011KT 10SM CLR 22/11 A2976 RMK AO2 SLP081 T02220111 $
KPSP - Palm Springs, California, USA
Distance from station: NNE 76mi, 122km
Updated: 09/20/2019 5:53am
Clear
Clear
 Wind from WNW
Wind: WNW 12 mph , 19 km/h, Gust: 18 mph , 30 km/h
Temperature: 73°F , 23°C
Dew Point: 48°F , 9°C
Humidity: 41%
Barometer: 29.81 inHg , 1009.5 hPa
Clouds: Clear
Visibility: 10 miles , 16 km
2019/09/20 12:53 KPSP 201253Z 30010G16KT 10SM CLR 23/09 A2981 RMK AO2 SLP090 T02280094
 
KSNA - Costa Mesa, California, USA
Distance from station: NW 76mi, 123km
Updated: 09/20/2019 5:53am
Mostly cloudy
Mostly cloudy
 Wind from E
Wind: E 6 mph , 9 km/h
Temperature: 68°F , 20°C
Dew Point: 55°F , 13°C
Humidity: 64%
Barometer: 29.88 inHg , 1011.9 hPa
Clouds: Mostly cloudy
Visibility: 10 miles , 16 km
Cloud details: Mostly cloudy 3200 ft
2019/09/20 12:53 KSNA 201253Z 10005KT 10SM BKN032 20/13 A2988 RMK AO2 SLP115 T02000133
KNJK - El Centro Naf, California, USA
Distance from station: E 79mi, 127km
Updated: 09/20/2019 5:56am
Clear
Clear
 Wind from WNW
Wind: WNW 10 mph , 17 km/h
Temperature: 68°F , 20°C
Dew Point: 34°F , 1°C
Humidity: 28%
Barometer: 29.77 inHg , 1008.1 hPa
Clouds: Clear
Visibility: 10 miles , 16 km
2019/09/20 12:56 KNJK 201256Z 29009KT 10SM CLR 20/01 A2977 RMK AO2 SLP096 T02000006 $
 
KAJO - Corona Muni, California, USA
Distance from station: NNW 82mi, 132km
Updated: 09/20/2019 5:56am
Overcast
Overcast
 Wind from SE
Wind: SE 3 mph , 6 km/h
Temperature: 64°F , 18°C
Dew Point: 57°F , 14°C
Humidity: 78%
Barometer: 29.89 inHg , 1012.2 hPa
Clouds: Overcast
Visibility: 10 miles , 16 km
Cloud details: Overcast 2600 ft
2019/09/20 12:56 KAJO 201256Z AUTO 13003KT 10SM OVC026 18/14 A2989 RMK AO2 SLP116 T01780144